Time;durP1;ratioP1;P1;durP2;ratioP2;P2;SDS_P1;SDS_P2;PMS_P1;PMS_P2;Temp;Humidity;BMP_temperature;BMP_pressure;BME280_temperature;BME280_humidity;BME280_pressure;Samples;Min_cycle;Max_cycle;Signal;HPM_P1;HPM_P2
2022/10/06 00:02:06;;;;;;;0.20;0.20;;;;;;;;;;7379567;19;20183;-73
2022/10/06 00:07:54;;;;;;;0.27;0.27;;;;;;;;;;7379952;19;20137;-72
2022/10/06 00:10:20;;;;;;;0.30;0.30;;;;;;;;;;7377490;19;20173;-73
2022/10/06 00:12:48;;;;;;;0.77;0.77;;;;;;;;;;7379677;19;20105;-73
2022/10/06 00:15:16;;;;;;;0.30;0.30;;;;;;;;;;7383032;19;20465;-72
2022/10/06 00:17:41;;;;;;;0.30;0.30;;;;;;;;;;7394707;19;20212;-72
2022/10/06 00:20:11;;;;;;;0.30;0.30;;;;;;;;;;7393131;19;20117;-72
2022/10/06 00:22:38;;;;;;;0.30;0.30;;;;;;;;;;7393926;19;20121;-72
2022/10/06 00:25:04;;;;;;;0.30;0.30;;;;;;;;;;7389170;19;20152;-73
2022/10/06 00:27:40;;;;;;;0.30;0.30;;;;;;;;;;7390900;19;20117;-72
2022/10/06 00:30:08;;;;;;;0.30;0.30;;;;;;;;;;7391182;19;20097;-72
2022/10/06 00:32:34;;;;;;;0.30;0.30;;;;;;;;;;7393438;19;20124;-72
2022/10/06 00:34:59;;;;;;;0.20;0.20;;;;;;;;;;7394603;19;20146;-72
2022/10/06 00:37:28;;;;;;;0.30;0.30;;;;;;;;;;7389447;19;20109;-73
2022/10/06 00:39:54;;;;;;;0.30;0.30;;;;;;;;;;7390407;19;20109;-72
2022/10/06 00:42:30;;;;;;;0.30;0.30;;;;;;;;;;7391283;19;20193;-72
2022/10/06 00:44:57;;;;;;;0.20;0.20;;;;;;;;;;7388293;19;20596;-72
2022/10/06 00:50:45;;;;;;;0.30;0.30;;;;;;;;;;7391410;19;20596;-72
2022/10/06 00:53:11;;;;;;;0.30;0.30;;;;;;;;;;7393472;19;20113;-73
2022/10/06 00:55:36;;;;;;;0.30;0.30;;;;;;;;;;7389732;19;20579;-72
2022/10/06 00:58:01;;;;;;;0.30;0.30;;;;;;;;;;7392139;19;20498;-72
2022/10/06 01:00:27;;;;;;;0.30;0.30;;;;;;;;;;7391466;19;20101;-72
2022/10/06 01:03:06;;;;;;;0.30;0.30;;;;;;;;;;7390790;19;20192;-73
2022/10/06 01:05:34;;;;;;;0.20;0.20;;;;;;;;;;7390396;19;20224;-72
2022/10/06 01:08:00;;;;;;;0.20;0.20;;;;;;;;;;7392210;19;20599;-71
2022/10/06 01:10:25;;;;;;;0.30;0.30;;;;;;;;;;7388439;19;20461;-74
2022/10/06 01:12:51;;;;;;;0.30;0.30;;;;;;;;;;7393742;19;20101;-71
2022/10/06 01:15:16;;;;;;;0.30;0.30;;;;;;;;;;7387597;19;20153;-73
2022/10/06 01:17:43;;;;;;;0.30;0.30;;;;;;;;;;7391475;19;20157;-72
2022/10/06 01:23:31;;;;;;;0.30;0.30;;;;;;;;;;7391412;19;20106;-72
2022/10/06 01:25:57;;;;;;;0.20;0.20;;;;;;;;;;7390351;19;20517;-72
2022/10/06 01:28:22;;;;;;;0.30;0.30;;;;;;;;;;7383315;19;20110;-72
2022/10/06 01:30:51;;;;;;;0.30;0.30;;;;;;;;;;7384816;19;20120;-72
2022/10/06 01:33:18;;;;;;;0.20;0.20;;;;;;;;;;7386559;19;20116;-72
2022/10/06 01:35:46;;;;;;;0.30;0.30;;;;;;;;;;7380922;19;20140;-72
2022/10/06 01:38:11;;;;;;;3.70;1.27;;;;;;;;;;7384770;19;20590;-70
2022/10/06 01:40:36;;;;;;;0.30;0.30;;;;;;;;;;7383229;19;20097;-72
2022/10/06 01:43:02;;;;;;;0.23;0.23;;;;;;;;;;7387124;19;20136;-72
2022/10/06 01:45:27;;;;;;;0.60;0.60;;;;;;;;;;7380355;19;20129;-72
2022/10/06 01:47:52;;;;;;;0.30;0.30;;;;;;;;;;7384358;19;20105;-73
2022/10/06 01:50:18;;;;;;;0.30;0.30;;;;;;;;;;7380967;19;20176;-71
2022/10/06 01:52:43;;;;;;;0.30;0.30;;;;;;;;;;7385040;19;20105;-72
2022/10/06 01:55:08;;;;;;;0.20;0.20;;;;;;;;;;7379059;19;20598;-73
2022/10/06 01:57:38;;;;;;;0.30;0.30;;;;;;;;;;7383008;19;20117;-72
2022/10/06 02:00:04;;;;;;;0.30;0.30;;;;;;;;;;7383285;19;20218;-71
2022/10/06 02:02:30;;;;;;;0.37;0.37;;;;;;;;;;7381737;19;20125;-72
2022/10/06 02:04:56;;;;;;;0.30;0.30;;;;;;;;;;7381316;19;20225;-72
2022/10/06 02:07:21;;;;;;;0.30;0.30;;;;;;;;;;7379680;19;20202;-70
2022/10/06 02:09:46;;;;;;;0.23;0.23;;;;;;;;;;7376097;19;20208;-70
2022/10/06 02:12:11;;;;;;;0.30;0.30;;;;;;;;;;7376625;19;20097;-72
2022/10/06 02:14:37;;;;;;;0.30;0.30;;;;;;;;;;7379201;19;20117;-71
2022/10/06 02:17:02;;;;;;;0.20;0.20;;;;;;;;;;7380110;19;20169;-72
2022/10/06 02:19:27;;;;;;;0.30;0.30;;;;;;;;;;7373741;19;20121;-71
2022/10/06 02:21:53;;;;;;;0.50;0.50;;;;;;;;;;7380489;19;20101;-73
2022/10/06 02:24:18;;;;;;;0.20;0.20;;;;;;;;;;7382845;19;20224;-70
2022/10/06 02:26:44;;;;;;;0.30;0.30;;;;;;;;;;7377054;19;20141;-72
2022/10/06 02:29:09;;;;;;;0.50;0.50;;;;;;;;;;7373162;19;20531;-73
2022/10/06 02:31:34;;;;;;;0.30;0.30;;;;;;;;;;7371525;19;21013;-70
2022/10/06 02:34:01;;;;;;;0.30;0.30;;;;;;;;;;7372967;19;20133;-70
2022/10/06 02:36:26;;;;;;;0.43;0.43;;;;;;;;;;7372058;19;20233;-71
2022/10/06 02:38:51;;;;;;;0.20;0.20;;;;;;;;;;7377872;19;20113;-69
2022/10/06 02:41:17;;;;;;;0.30;0.30;;;;;;;;;;7370253;19;20116;-70
2022/10/06 02:43:42;;;;;;;0.30;0.30;;;;;;;;;;7375568;19;20125;-71
2022/10/06 02:46:11;;;;;;;0.30;0.30;;;;;;;;;;7384025;19;20464;-70
2022/10/06 02:48:36;;;;;;;0.30;0.30;;;;;;;;;;7381810;19;20134;-69
2022/10/06 02:51:09;;;;;;;0.37;0.37;;;;;;;;;;7376514;19;20125;-69
2022/10/06 02:53:35;;;;;;;0.30;0.30;;;;;;;;;;7380388;19;20102;-70
2022/10/06 02:56:21;;;;;;;0.30;0.30;;;;;;;;;;7380049;19;20125;-71
2022/10/06 02:58:47;;;;;;;0.30;0.30;;;;;;;;;;7379764;19;20530;-69
2022/10/06 03:01:22;;;;;;;0.30;0.30;;;;;;;;;;7375272;19;20309;-70
2022/10/06 03:03:48;;;;;;;0.30;0.30;;;;;;;;;;7379976;19;20159;-70
2022/10/06 03:06:22;;;;;;;0.20;0.20;;;;;;;;;;7382022;19;20117;-71
2022/10/06 03:08:57;;;;;;;0.30;0.30;;;;;;;;;;7381479;19;20105;-71
2022/10/06 03:11:25;;;;;;;0.30;0.30;;;;;;;;;;7378707;19;20145;-69
2022/10/06 03:13:51;;;;;;;0.30;0.30;;;;;;;;;;7375043;19;20149;-70
2022/10/06 03:16:22;;;;;;;0.30;0.30;;;;;;;;;;7377045;19;20156;-70
2022/10/06 03:18:49;;;;;;;0.50;0.50;;;;;;;;;;7382278;19;20615;-70
2022/10/06 03:21:20;;;;;;;0.30;0.30;;;;;;;;;;7375420;19;20593;-70
2022/10/06 03:23:46;;;;;;;5.60;0.67;;;;;;;;;;7380569;19;20629;-69
2022/10/06 03:26:13;;;;;;;0.30;0.30;;;;;;;;;;7377665;19;20113;-70
2022/10/06 03:28:39;;;;;;;0.30;0.30;;;;;;;;;;7380329;19;20125;-70
2022/10/06 03:31:05;;;;;;;0.40;0.40;;;;;;;;;;7378938;19;20132;-70
2022/10/06 03:33:31;;;;;;;0.30;0.30;;;;;;;;;;7382075;19;20124;-71
2022/10/06 03:36:00;;;;;;;0.30;0.30;;;;;;;;;;7377423;19;20117;-70
2022/10/06 03:38:25;;;;;;;0.20;0.20;;;;;;;;;;7380619;19;20598;-71
2022/10/06 03:40:50;;;;;;;0.30;0.30;;;;;;;;;;7377843;19;20124;-70
2022/10/06 03:43:16;;;;;;;0.20;0.20;;;;;;;;;;7381561;19;20129;-71
2022/10/06 03:45:41;;;;;;;0.30;0.30;;;;;;;;;;7374929;19;20121;-71
2022/10/06 03:48:06;;;;;;;0.30;0.30;;;;;;;;;;7380291;19;20122;-72
2022/10/06 03:50:32;;;;;;;0.30;0.30;;;;;;;;;;7371029;19;20116;-72
2022/10/06 03:52:57;;;;;;;0.20;0.20;;;;;;;;;;7380770;19;20124;-72
2022/10/06 03:55:22;;;;;;;0.20;0.20;;;;;;;;;;7377175;19;20753;-72
2022/10/06 03:57:48;;;;;;;0.30;0.30;;;;;;;;;;7380939;19;20191;-71
2022/10/06 04:00:13;;;;;;;0.30;0.30;;;;;;;;;;7375662;19;20134;-72
2022/10/06 15:58:35;;;;;;;0.30;0.30;;;;;;;;;;7387007;19;20204;-72
2022/10/06 16:01:02;;;;;;;0.30;0.30;;;;;;;;;;7385647;19;20751;-72
2022/10/06 16:03:38;;;;;;;0.40;0.40;;;;;;;;;;7387044;19;20109;-72
2022/10/06 16:06:07;;;;;;;0.50;0.50;;;;;;;;;;7386717;19;20566;-72
2022/10/06 16:08:34;;;;;;;0.30;0.30;;;;;;;;;;7387104;19;20101;-72
2022/10/06 16:10:59;;;;;;;0.57;0.57;;;;;;;;;;7384634;19;20131;-72
2022/10/06 16:13:25;;;;;;;0.40;0.40;;;;;;;;;;7386876;19;20101;-72
2022/10/06 16:15:54;;;;;;;0.30;0.30;;;;;;;;;;7384208;19;20121;-72
2022/10/06 16:18:19;;;;;;;0.40;0.40;;;;;;;;;;7387176;19;20150;-72
2022/10/06 16:20:44;;;;;;;0.30;0.30;;;;;;;;;;7385231;19;20209;-72
2022/10/06 16:23:10;;;;;;;0.30;0.30;;;;;;;;;;7385542;19;20444;-72
2022/10/06 16:25:35;;;;;;;0.30;0.30;;;;;;;;;;7381274;19;20145;-72
2022/10/06 16:28:00;;;;;;;0.30;0.30;;;;;;;;;;7384250;19;20108;-72
2022/10/06 16:30:25;;;;;;;0.30;0.30;;;;;;;;;;7375551;19;20109;-72
2022/10/06 16:32:51;;;;;;;0.30;0.30;;;;;;;;;;7385333;19;20117;-72
2022/10/06 16:35:16;;;;;;;0.25;0.25;;;;;;;;;;7383939;19;20475;-72
2022/10/06 16:37:47;;;;;;;0.30;0.30;;;;;;;;;;7384610;19;20133;-72
2022/10/06 16:40:16;;;;;;;0.30;0.30;;;;;;;;;;7384030;19;20152;-71
2022/10/06 16:42:43;;;;;;;0.30;0.30;;;;;;;;;;7384420;19;20102;-72
2022/10/06 16:45:15;;;;;;;0.20;0.20;;;;;;;;;;7382866;19;20129;-70
2022/10/06 16:47:40;;;;;;;0.77;0.77;;;;;;;;;;7386153;19;20117;-71
2022/10/06 16:50:06;;;;;;;0.30;0.30;;;;;;;;;;7386461;19;20122;-71
2022/10/06 16:52:31;;;;;;;0.50;0.50;;;;;;;;;;7386185;19;20114;-72
2022/10/06 16:54:57;;;;;;;0.30;0.30;;;;;;;;;;7384919;19;20236;-72
2022/10/06 16:57:23;;;;;;;0.47;0.47;;;;;;;;;;7387154;19;20136;-71
2022/10/06 16:59:49;;;;;;;0.30;0.30;;;;;;;;;;7391814;19;20145;-73
2022/10/06 17:02:14;;;;;;;0.30;0.30;;;;;;;;;;7392684;19;20131;-72
2022/10/06 17:04:40;;;;;;;0.40;0.40;;;;;;;;;;7391360;19;20117;-72
2022/10/06 17:07:05;;;;;;;0.30;0.30;;;;;;;;;;7392158;19;20114;-72
2022/10/06 17:09:30;;;;;;;0.40;0.40;;;;;;;;;;7394835;19;20192;-72
2022/10/06 17:11:58;;;;;;;0.30;0.30;;;;;;;;;;7392946;19;20452;-74
2022/10/06 17:14:24;;;;;;;0.30;0.30;;;;;;;;;;7392798;19;20208;-73
2022/10/06 17:16:52;;;;;;;0.52;0.47;;;;;;;;;;7392659;19;20117;-71
2022/10/06 17:19:18;;;;;;;0.30;0.30;;;;;;;;;;7392539;19;20113;-72
2022/10/06 17:21:44;;;;;;;0.30;0.30;;;;;;;;;;7390922;19;20126;-72
2022/10/06 17:24:09;;;;;;;0.30;0.30;;;;;;;;;;7390870;19;20528;-72
2022/10/06 17:26:37;;;;;;;0.30;0.30;;;;;;;;;;7393446;19;20097;-72
2022/10/06 17:29:04;;;;;;;0.30;0.30;;;;;;;;;;7391574;19;20124;-73
2022/10/06 17:31:34;;;;;;;0.30;0.30;;;;;;;;;;7390463;19;20133;-71
2022/10/06 17:34:10;;;;;;;0.30;0.30;;;;;;;;;;7391205;19;20152;-72
2022/10/06 17:36:36;;;;;;;0.30;0.30;;;;;;;;;;7392566;19;20101;-72
2022/10/06 17:39:04;;;;;;;0.30;0.30;;;;;;;;;;7391937;19;20121;-72
2022/10/06 17:41:32;;;;;;;0.30;0.30;;;;;;;;;;7390350;19;20102;-71
2022/10/06 17:44:02;;;;;;;0.40;0.40;;;;;;;;;;7390562;19;20187;-72
2022/10/06 17:46:28;;;;;;;0.30;0.30;;;;;;;;;;7393523;19;20105;-72
2022/10/06 17:48:55;;;;;;;0.30;0.30;;;;;;;;;;7390497;19;20126;-72
2022/10/06 17:51:23;;;;;;;0.30;0.30;;;;;;;;;;7392059;19;20137;-72
2022/10/06 17:53:51;;;;;;;0.30;0.30;;;;;;;;;;7392385;19;20572;-72
2022/10/06 17:56:21;;;;;;;0.30;0.30;;;;;;;;;;7391591;19;20126;-72
2022/10/06 17:58:57;;;;;;;0.30;0.30;;;;;;;;;;7390994;19;20556;-72
2022/10/06 18:01:25;;;;;;;0.30;0.30;;;;;;;;;;7389529;19;20198;-72
2022/10/06 18:03:54;;;;;;;0.30;0.30;;;;;;;;;;7391010;19;20117;-72
2022/10/06 18:06:20;;;;;;;0.30;0.30;;;;;;;;;;7391558;19;20124;-72
2022/10/06 18:08:47;;;;;;;0.30;0.30;;;;;;;;;;7388509;19;20113;-72
2022/10/06 18:11:34;;;;;;;0.30;0.30;;;;;;;;;;7389534;19;20128;-72
2022/10/06 18:14:20;;;;;;;0.30;0.30;;;;;;;;;;7389117;19;20435;-72
2022/10/06 18:16:52;;;;;;;0.30;0.30;;;;;;;;;;7391033;19;20489;-72
2022/10/06 18:19:23;;;;;;;0.30;0.30;;;;;;;;;;7390174;19;20537;-71
2022/10/06 18:21:48;;;;;;;0.20;0.20;;;;;;;;;;7389817;19;20121;-74
2022/10/06 18:24:16;;;;;;;0.30;0.30;;;;;;;;;;7389758;19;20169;-72
2022/10/06 18:26:42;;;;;;;0.30;0.30;;;;;;;;;;7390424;19;20113;-72
2022/10/06 18:29:08;;;;;;;0.30;0.30;;;;;;;;;;7391549;19;20161;-72
2022/10/06 18:31:34;;;;;;;0.30;0.30;;;;;;;;;;7390328;19;20109;-73
2022/10/06 18:34:00;;;;;;;0.30;0.30;;;;;;;;;;7389833;19;20130;-72
2022/10/06 18:36:25;;;;;;;0.30;0.30;;;;;;;;;;7389917;19;20117;-72
2022/10/06 18:38:54;;;;;;;0.30;0.30;;;;;;;;;;7389159;19;20494;-72
2022/10/06 18:41:21;;;;;;;0.30;0.30;;;;;;;;;;7388639;19;20130;-72
2022/10/06 18:43:47;;;;;;;0.65;0.65;;;;;;;;;;7387427;19;20153;-72
2022/10/06 18:48:59;;;;;;;0.20;0.20;;;;;;;;;;7385861;19;20147;-73
2022/10/06 18:51:34;;;;;;;0.30;0.30;;;;;;;;;;7385209;19;20144;-72
2022/10/06 18:54:30;;;;;;;0.30;0.30;;;;;;;;;;7387043;19;20117;-71
2022/10/06 18:56:56;;;;;;;0.30;0.30;;;;;;;;;;7386072;19;20165;-72
2022/10/06 18:59:25;;;;;;;0.30;0.30;;;;;;;;;;7388252;19;20480;-75
2022/10/06 19:01:51;;;;;;;0.30;0.30;;;;;;;;;;7382227;19;20168;-72
2022/10/06 19:04:18;;;;;;;0.30;0.30;;;;;;;;;;7384815;19;20658;-71
2022/10/06 19:06:47;;;;;;;0.30;0.30;;;;;;;;;;7387324;19;20500;-71
2022/10/06 19:09:16;;;;;;;0.30;0.30;;;;;;;;;;7388466;19;20101;-72
2022/10/06 19:11:47;;;;;;;0.30;0.30;;;;;;;;;;7387944;19;20116;-72
2022/10/06 19:14:14;;;;;;;0.30;0.30;;;;;;;;;;7387188;19;20125;-72
2022/10/06 19:16:41;;;;;;;0.30;0.30;;;;;;;;;;7389281;19;20137;-73
2022/10/06 19:19:11;;;;;;;0.30;0.30;;;;;;;;;;7387696;19;20109;-72
2022/10/06 19:21:47;;;;;;;0.30;0.30;;;;;;;;;;7386666;19;20121;-72
2022/10/06 19:24:15;;;;;;;0.30;0.30;;;;;;;;;;7387651;19;20627;-71
2022/10/06 19:26:42;;;;;;;0.60;0.60;;;;;;;;;;7388116;19;20133;-72
2022/10/06 19:29:07;;;;;;;0.30;0.30;;;;;;;;;;7388152;19;20475;-72
2022/10/06 19:31:40;;;;;;;0.30;0.30;;;;;;;;;;7386792;19;20604;-71
2022/10/06 19:34:07;;;;;;;0.30;0.30;;;;;;;;;;7387655;19;20125;-72
2022/10/06 19:36:33;;;;;;;0.35;0.35;;;;;;;;;;7388005;19;20136;-72
2022/10/06 19:39:01;;;;;;;0.30;0.30;;;;;;;;;;7387056;19;20113;-72
2022/10/06 19:44:10;;;;;;;0.30;0.30;;;;;;;;;;7388675;19;20127;-71
2022/10/06 19:46:36;;;;;;;0.20;0.20;;;;;;;;;;7390496;19;20105;-72
2022/10/06 19:49:04;;;;;;;0.30;0.30;;;;;;;;;;7387087;19;20734;-72
2022/10/06 19:51:30;;;;;;;0.47;0.47;;;;;;;;;;7382020;19;20471;-72
2022/10/06 19:53:55;;;;;;;0.30;0.30;;;;;;;;;;7383175;19;20113;-73
2022/10/06 19:56:24;;;;;;;0.30;0.30;;;;;;;;;;7385272;19;20237;-71
2022/10/06 19:58:50;;;;;;;0.30;0.30;;;;;;;;;;7385480;19;20128;-73
2022/10/06 20:01:17;;;;;;;0.30;0.30;;;;;;;;;;7384010;19;20109;-72
2022/10/06 20:03:42;;;;;;;0.30;0.30;;;;;;;;;;7384917;19;20124;-72
2022/10/06 20:06:10;;;;;;;0.32;0.32;;;;;;;;;;7385298;19;20140;-72
2022/10/06 20:08:38;;;;;;;0.20;0.20;;;;;;;;;;7384874;19;20117;-72
2022/10/06 20:11:05;;;;;;;1.02;1.00;;;;;;;;;;7382837;19;20120;-72
2022/10/06 20:13:32;;;;;;;0.30;0.30;;;;;;;;;;7384075;19;20105;-72
2022/10/06 20:16:02;;;;;;;0.20;0.20;;;;;;;;;;7385204;19;20123;-73
2022/10/06 20:18:28;;;;;;;0.30;0.30;;;;;;;;;;7382831;19;20101;-72
2022/10/06 20:20:57;;;;;;;0.30;0.30;;;;;;;;;;7381216;19;20645;-72
2022/10/06 20:23:24;;;;;;;0.30;0.30;;;;;;;;;;7379141;19;20109;-72
2022/10/06 20:25:49;;;;;;;0.25;0.25;;;;;;;;;;7379590;19;20138;-72
2022/10/06 20:28:14;;;;;;;0.30;0.30;;;;;;;;;;7382404;19;20567;-73
2022/10/06 20:30:48;;;;;;;0.30;0.30;;;;;;;;;;7384339;19;20116;-72
2022/10/06 20:33:13;;;;;;;0.30;0.30;;;;;;;;;;7391119;19;20176;-72
2022/10/06 20:35:38;;;;;;;0.40;0.40;;;;;;;;;;7389239;19;20151;-72
2022/10/06 20:38:07;;;;;;;0.30;0.30;;;;;;;;;;7391712;19;20552;-72
2022/10/06 20:40:38;;;;;;;0.30;0.30;;;;;;;;;;7390314;19;20113;-71
2022/10/06 20:43:04;;;;;;;0.20;0.20;;;;;;;;;;7392416;19;20125;-72
2022/10/06 20:45:29;;;;;;;0.30;0.30;;;;;;;;;;7389379;19;20505;-72
2022/10/06 20:47:59;;;;;;;0.30;0.30;;;;;;;;;;7390061;19;20120;-72
2022/10/06 20:50:24;;;;;;;0.30;0.30;;;;;;;;;;7388766;19;20125;-72
2022/10/06 20:52:50;;;;;;;0.30;0.30;;;;;;;;;;7391948;19;20121;-71
2022/10/06 20:55:15;;;;;;;0.30;0.30;;;;;;;;;;7389370;19;20212;-72
2022/10/06 20:57:41;;;;;;;0.30;0.30;;;;;;;;;;7392402;19;20189;-73
2022/10/06 21:00:07;;;;;;;0.20;0.20;;;;;;;;;;7390233;19;20176;-72
2022/10/06 21:02:32;;;;;;;0.20;0.20;;;;;;;;;;7391108;19;20125;-74
2022/10/06 21:04:57;;;;;;;0.30;0.30;;;;;;;;;;7389110;19;20128;-74
2022/10/06 21:07:23;;;;;;;0.30;0.30;;;;;;;;;;7391006;19;20109;-72
2022/10/06 21:09:48;;;;;;;0.30;0.30;;;;;;;;;;7392793;19;20428;-72
2022/10/06 21:12:15;;;;;;;0.30;0.30;;;;;;;;;;7391270;19;20212;-73
2022/10/06 21:14:41;;;;;;;0.30;0.30;;;;;;;;;;7389453;19;20477;-72
2022/10/06 21:17:06;;;;;;;0.20;0.20;;;;;;;;;;7390817;19;20457;-72
2022/10/06 21:19:36;;;;;;;0.30;0.30;;;;;;;;;;7388401;19;20107;-73
2022/10/06 21:22:01;;;;;;;0.30;0.30;;;;;;;;;;7389925;19;20145;-72
2022/10/06 21:24:27;;;;;;;0.30;0.30;;;;;;;;;;7384840;19;20485;-72
2022/10/06 21:26:53;;;;;;;0.30;0.30;;;;;;;;;;7383276;19;20592;-74
2022/10/06 21:29:19;;;;;;;0.30;0.30;;;;;;;;;;7387269;19;20121;-71
2022/10/06 21:31:45;;;;;;;0.30;0.30;;;;;;;;;;7388340;19;20345;-72
2022/10/06 21:34:11;;;;;;;0.30;0.30;;;;;;;;;;7388431;19;20240;-72
2022/10/06 21:36:37;;;;;;;0.30;0.30;;;;;;;;;;7388007;19;20105;-73
2022/10/06 21:39:04;;;;;;;0.40;0.30;;;;;;;;;;7388352;19;20097;-71
2022/10/06 21:41:33;;;;;;;0.30;0.30;;;;;;;;;;7385660;19;20128;-72
2022/10/06 21:44:16;;;;;;;0.30;0.30;;;;;;;;;;7387600;19;20121;-74
2022/10/06 21:46:52;;;;;;;0.30;0.30;;;;;;;;;;7388720;19;20113;-72
2022/10/06 21:49:21;;;;;;;0.20;0.20;;;;;;;;;;7388300;19;20124;-74
2022/10/06 21:51:49;;;;;;;0.30;0.30;;;;;;;;;;7387257;19;20121;-72
2022/10/06 21:54:15;;;;;;;0.30;0.30;;;;;;;;;;7385643;19;20610;-71
2022/10/06 21:56:40;;;;;;;0.30;0.30;;;;;;;;;;7387567;19;20113;-71
2022/10/06 21:59:06;;;;;;;0.30;0.30;;;;;;;;;;7384115;19;20192;-72
2022/10/06 22:01:34;;;;;;;0.20;0.20;;;;;;;;;;7384589;19;20169;-72
2022/10/06 22:04:00;;;;;;;0.30;0.30;;;;;;;;;;7388110;19;20120;-71
2022/10/06 22:06:31;;;;;;;0.30;0.30;;;;;;;;;;7390791;19;20101;-70
2022/10/06 22:08:57;;;;;;;0.30;0.30;;;;;;;;;;7388484;19;20457;-72
2022/10/06 22:11:29;;;;;;;0.27;0.27;;;;;;;;;;7387875;19;20098;-72
2022/10/06 22:13:56;;;;;;;0.20;0.20;;;;;;;;;;7385066;19;21029;-71
2022/10/06 22:16:24;;;;;;;0.30;0.30;;;;;;;;;;7386722;19;20365;-72
2022/10/06 22:18:49;;;;;;;0.30;0.30;;;;;;;;;;7388008;19;20116;-71
2022/10/06 22:21:19;;;;;;;0.40;0.40;;;;;;;;;;7387756;19;20555;-72
2022/10/06 22:26:14;;;;;;;0.30;0.30;;;;;;;;;;7387862;19;20169;-72
2022/10/06 22:28:44;;;;;;;0.30;0.30;;;;;;;;;;7385142;19;20129;-73
2022/10/06 22:31:10;;;;;;;0.30;0.30;;;;;;;;;;7385722;19;20117;-72
2022/10/06 22:33:37;;;;;;;0.30;0.30;;;;;;;;;;7387681;19;20112;-71
2022/10/06 22:36:04;;;;;;;0.30;0.30;;;;;;;;;;7385101;19;20482;-72
2022/10/06 22:38:29;;;;;;;0.30;0.30;;;;;;;;;;7386055;19;20197;-72
2022/10/06 22:41:02;;;;;;;0.30;0.30;;;;;;;;;;7384165;19;20113;-71
2022/10/06 22:43:27;;;;;;;0.27;0.27;;;;;;;;;;7389009;19;20130;-73
2022/10/06 22:45:53;;;;;;;0.30;0.30;;;;;;;;;;7379083;19;20160;-71
2022/10/06 22:48:18;;;;;;;0.30;0.30;;;;;;;;;;7384696;19;20137;-71
2022/10/06 22:50:43;;;;;;;0.30;0.30;;;;;;;;;;7385723;19;20121;-72
2022/10/06 22:53:09;;;;;;;0.30;0.30;;;;;;;;;;7387022;19;20451;-72
2022/10/06 22:55:34;;;;;;;0.30;0.30;;;;;;;;;;7378383;19;20234;-72
2022/10/06 22:58:00;;;;;;;0.30;0.30;;;;;;;;;;7380002;19;20116;-72
2022/10/06 23:00:26;;;;;;;0.30;0.30;;;;;;;;;;7377144;19;20126;-72
2022/10/06 23:02:52;;;;;;;0.30;0.30;;;;;;;;;;7388865;19;20424;-71
2022/10/06 23:05:17;;;;;;;0.30;0.30;;;;;;;;;;7381114;19;20152;-72
2022/10/06 23:07:43;;;;;;;0.30;0.30;;;;;;;;;;7381158;19;20132;-71
2022/10/06 23:10:08;;;;;;;0.30;0.30;;;;;;;;;;7385630;19;20480;-72
2022/10/06 23:12:33;;;;;;;0.30;0.30;;;;;;;;;;7386315;19;20483;-71
2022/10/06 23:14:59;;;;;;;0.30;0.30;;;;;;;;;;7386459;19;20486;-70
2022/10/06 23:17:24;;;;;;;0.30;0.30;;;;;;;;;;7386702;19;20105;-72
2022/10/06 23:19:49;;;;;;;0.30;0.30;;;;;;;;;;7384713;19;20105;-71
2022/10/06 23:22:15;;;;;;;0.30;0.30;;;;;;;;;;7382353;19;20116;-71
2022/10/06 23:24:40;;;;;;;0.30;0.30;;;;;;;;;;7383969;19;20169;-71
2022/10/06 23:27:06;;;;;;;0.20;0.20;;;;;;;;;;7384331;19;20598;-71
2022/10/06 23:29:34;;;;;;;0.20;0.20;;;;;;;;;;7383381;19;20113;-72
2022/10/06 23:31:59;;;;;;;0.33;0.33;;;;;;;;;;7384376;19;20115;-71
2022/10/06 23:34:25;;;;;;;0.30;0.30;;;;;;;;;;7385655;19;20133;-73
2022/10/06 23:36:50;;;;;;;0.30;0.30;;;;;;;;;;7382858;19;20133;-71
2022/10/06 23:39:15;;;;;;;0.30;0.30;;;;;;;;;;7386437;19;20109;-72
2022/10/06 23:41:41;;;;;;;0.30;0.30;;;;;;;;;;7382122;19;20114;-71
2022/10/06 23:44:07;;;;;;;0.20;0.20;;;;;;;;;;7382559;19;20160;-71
2022/10/06 23:46:32;;;;;;;0.30;0.30;;;;;;;;;;7384467;19;20102;-71
2022/10/06 23:48:57;;;;;;;0.20;0.20;;;;;;;;;;7384173;19;20136;-73
2022/10/06 23:51:23;;;;;;;0.20;0.20;;;;;;;;;;7384117;19;20116;-71
2022/10/06 23:53:48;;;;;;;0.30;0.30;;;;;;;;;;7378085;19;20125;-72
2022/10/06 23:56:13;;;;;;;0.30;0.30;;;;;;;;;;7383151;19;20141;-71
2022/10/06 23:58:40;;;;;;;0.30;0.30;;;;;;;;;;7384139;19;20520;-72
